createdAt,value
2018-05-05T00:00:45.323Z,8.9
2018-05-05T00:01:45.497Z,8.85
2018-05-05T00:02:45.942Z,8.85
2018-05-05T00:03:46.150Z,8.89
2018-05-05T00:04:46.583Z,8.82
2018-05-05T00:05:46.774Z,8.72
2018-05-05T00:06:47.502Z,8.83
2018-05-05T00:07:47.670Z,8.72
2018-05-05T00:08:47.704Z,8.65
2018-05-05T00:09:47.737Z,8.6
2018-05-05T00:10:47.505Z,8.53
2018-05-05T00:11:47.980Z,8.54
2018-05-05T00:12:48.257Z,8.5
2018-05-05T00:13:48.442Z,8.58
2018-05-05T00:14:48.477Z,8.6
2018-05-05T00:15:48.512Z,8.54
2018-05-05T00:16:48.983Z,8.61
2018-05-05T00:17:49.444Z,8.53
2018-05-05T00:18:49.893Z,8.5
2018-05-05T00:19:50.061Z,8.49
2018-05-05T00:20:50.093Z,8.49
2018-05-05T00:21:50.296Z,8.52
2018-05-05T00:22:50.240Z,8.5
2018-05-05T00:23:50.770Z,8.44
2018-05-05T00:24:51.502Z,8.4
2018-05-05T00:25:51.245Z,8.35
2018-05-05T00:26:51.702Z,8.32
2018-05-05T00:27:51.477Z,8.31
2018-05-05T00:28:51.463Z,8.25
2018-05-05T00:29:52.173Z,8.32
2018-05-05T00:30:52.370Z,8.24
2018-05-05T00:31:52.651Z,8.26
2018-05-05T00:32:53.184Z,8.29
2018-05-05T00:33:53.136Z,8.24
2018-05-05T00:34:53.070Z,8.24
2018-05-05T00:35:53.621Z,8.26
2018-05-05T00:36:54.071Z,8.28
2018-05-05T00:37:54.313Z,8.22
2018-05-05T00:38:54.293Z,8.25
2018-05-05T00:39:54.471Z,8.16
2018-05-05T00:40:54.655Z,8.22
2018-05-05T00:41:55.095Z,8.17
2018-05-05T00:42:54.987Z,8.11
2018-05-05T00:43:55.711Z,8.14
2018-05-05T00:44:55.463Z,8.25
2018-05-05T00:45:55.922Z,8.14
2018-05-05T00:46:56.118Z,8.14
2018-05-05T00:47:56.302Z,8.21
2018-05-05T00:48:56.350Z,8.11
2018-05-05T00:49:56.356Z,8.16
2018-05-05T00:50:56.824Z,8.03
2018-05-05T00:51:56.725Z,7.98
2018-05-05T00:52:57.035Z,7.98
2018-05-05T00:53:57.218Z,7.91
2018-05-05T00:54:57.533Z,7.89
2018-05-05T00:55:57.289Z,7.88
2018-05-05T00:56:57.507Z,7.89
2018-05-05T00:57:57.959Z,7.85
2018-05-05T00:58:58.009Z,7.88
2018-05-05T00:59:58.696Z,7.88
2018-05-05T01:01:00.663Z,7.83
2018-05-05T01:01:59.997Z,7.8
2018-05-05T02:16:27.179Z,6.54
2018-05-05T02:16:55.964Z,6.6
2018-05-05T02:17:55.856Z,6.58
2018-05-05T03:00:09.091Z,5.87
2018-05-05T03:00:24.638Z,5.84
2018-05-05T03:01:24.594Z,5.95
2018-05-05T03:02:24.229Z,5.84
2018-05-05T03:03:24.355Z,5.75
2018-05-05T03:04:25.038Z,5.73
2018-05-05T03:05:25.046Z,5.63
2018-05-05T03:06:25.311Z,5.78
2018-05-05T03:07:25.045Z,5.7
2018-05-05T03:08:25.478Z,5.66
2018-05-05T03:09:25.501Z,5.64
2018-05-05T03:10:25.371Z,5.69
2018-05-05T03:11:26.092Z,5.63
2018-05-05T03:12:26.200Z,5.69
2018-05-05T03:13:25.698Z,5.69
2018-05-05T03:14:26.265Z,5.63
2018-05-05T03:15:26.404Z,5.64
2018-05-05T03:16:26.440Z,5.69
2018-05-05T03:17:26.804Z,5.72
2018-05-05T03:18:26.808Z,5.62
2018-05-05T03:19:26.956Z,5.57
2018-05-05T03:20:27.622Z,5.62
2018-05-05T03:21:27.513Z,5.62
2018-05-05T03:22:28.184Z,5.6
2018-05-05T03:23:28.204Z,5.48
2018-05-05T03:24:28.581Z,5.54
2018-05-05T03:25:28.063Z,5.44
2018-05-05T03:26:28.343Z,5.44
2018-05-05T03:27:28.591Z,5.46
2018-05-05T03:28:28.983Z,5.52
2018-05-05T03:29:28.754Z,5.52
2018-05-05T03:30:29.406Z,5.55
2018-05-05T03:31:29.846Z,5.57
2018-05-05T03:32:29.849Z,5.57
2018-05-05T03:33:29.871Z,5.54
2018-05-05T03:34:29.915Z,5.51
2018-05-05T03:35:30.036Z,5.48
2018-05-05T03:36:30.112Z,5.45
2018-05-05T03:37:30.511Z,5.46
2018-05-05T03:38:30.533Z,5.45
2018-05-05T03:39:30.656Z,5.45
2018-05-05T03:40:30.767Z,5.48
2018-05-05T03:41:31.410Z,5.44
2018-05-05T03:42:31.495Z,5.49
2018-05-05T03:43:31.635Z,5.51
2018-05-05T03:44:31.827Z,5.46
2018-05-05T03:45:31.583Z,5.54
2018-05-05T03:46:31.975Z,5.48
2018-05-05T03:47:32.304Z,5.55
2018-05-05T03:48:32.323Z,5.55
2018-05-05T03:49:32.418Z,5.55
2018-05-05T03:50:32.346Z,5.57
2018-05-05T03:51:32.458Z,5.64
2018-05-05T03:52:32.412Z,5.59
2018-05-05T03:53:32.201Z,5.62
2018-05-05T03:54:32.213Z,5.59
2018-05-05T03:55:32.355Z,5.55
2018-05-05T03:56:32.881Z,5.59
2018-05-05T03:57:33.332Z,5.57
2018-05-05T03:58:33.257Z,5.57
2018-05-05T03:59:33.383Z,5.6
2018-05-05T04:00:33.269Z,5.62
2018-05-05T04:01:33.565Z,5.59
2018-05-05T04:02:34.002Z,5.57
2018-05-05T04:03:34.390Z,5.52
2018-05-05T04:04:34.409Z,5.57
2018-05-05T04:05:34.204Z,5.62
2018-05-05T04:06:34.118Z,5.57
2018-05-05T04:07:34.650Z,5.57
2018-05-05T04:08:34.677Z,5.55
2018-05-05T04:09:34.782Z,5.6
2018-05-05T04:10:35.418Z,5.54
2018-05-05T04:11:35.570Z,5.55
2018-05-05T04:12:35.970Z,5.69
2018-05-05T04:13:35.714Z,5.55
2018-05-05T04:14:36.103Z,5.62
2018-05-05T04:15:36.490Z,5.63
2018-05-05T04:16:37.141Z,5.72
2018-05-05T04:17:36.649Z,5.78
2018-05-05T04:18:37.191Z,5.81
2018-05-05T04:19:37.777Z,5.8
2018-05-05T04:20:37.380Z,5.81
2018-05-05T04:21:37.768Z,5.82
2018-05-05T04:22:38.173Z,5.88
2018-05-05T04:23:37.938Z,5.87
2018-05-05T04:24:38.341Z,5.92
2018-05-05T04:25:38.761Z,5.87
2018-05-05T04:26:38.778Z,5.92
2018-05-05T04:27:39.185Z,5.91
2018-05-05T04:28:39.318Z,5.96
2018-05-05T04:29:39.702Z,6
2018-05-05T04:30:40.090Z,6.02
2018-05-05T04:31:40.208Z,6.09
2018-05-05T04:32:40.601Z,6.14
2018-05-05T04:33:40.382Z,6.17
2018-05-05T04:34:40.798Z,6.28
2018-05-05T04:35:40.572Z,6.26
2018-05-05T04:36:40.961Z,6.25
2018-05-05T04:37:41.384Z,6.29
2018-05-05T04:38:41.545Z,6.36
2018-05-05T04:39:41.579Z,6.42
2018-05-05T04:40:42.014Z,6.39
2018-05-05T04:41:42.266Z,6.52
2018-05-05T04:42:42.297Z,6.58
2018-05-05T04:43:42.325Z,6.61
2018-05-05T04:44:42.121Z,6.61
2018-05-05T04:45:42.640Z,6.67
2018-05-05T04:46:42.649Z,6.9
2018-05-05T04:47:42.565Z,6.91
2018-05-05T04:48:42.605Z,7.09
2018-05-05T04:49:42.611Z,7.29
2018-05-05T04:50:42.938Z,7.36
2018-05-05T04:51:42.932Z,7.49
2018-05-05T04:52:43.330Z,7.58
2018-05-05T04:53:43.180Z,7.73
2018-05-05T04:54:43.856Z,7.86
2018-05-05T04:55:43.993Z,7.99
2018-05-05T04:56:44.391Z,8.03
2018-05-05T04:57:44.841Z,8.03
2018-05-05T04:58:44.351Z,8.14
2018-05-05T04:59:44.896Z,8.17
2018-05-05T05:00:44.936Z,8.14
2018-05-05T05:01:44.952Z,8.19
2018-05-05T05:02:45.130Z,8.26
2018-05-05T05:03:45.162Z,8.36
2018-05-05T05:04:45.339Z,8.36
2018-05-05T05:05:45.106Z,8.44
2018-05-05T05:06:45.449Z,8.52
2018-05-05T05:07:45.378Z,8.69
2018-05-05T05:08:45.406Z,8.87
2018-05-05T05:09:45.792Z,9.03
2018-05-05T05:10:46.343Z,9.08
2018-05-05T05:11:45.610Z,9.16
2018-05-05T05:12:46.836Z,9.26
2018-05-05T05:13:47.424Z,9.44
2018-05-05T05:14:47.032Z,9.47
2018-05-05T05:15:46.621Z,9.59
2018-05-05T05:16:47.399Z,9.63
2018-05-05T05:17:47.207Z,9.71
2018-05-05T05:18:46.946Z,9.75
2018-05-05T05:19:47.834Z,9.75
2018-05-05T05:20:47.810Z,9.8
2018-05-05T05:21:48.241Z,9.82
2018-05-05T05:22:48.402Z,9.92
2018-05-05T05:23:48.886Z,9.99
2018-05-05T05:24:48.950Z,10.02
2018-05-05T05:25:48.945Z,10.18
2018-05-05T05:26:48.974Z,10.35
2018-05-05T05:27:49.008Z,10.54
2018-05-05T05:28:48.711Z,10.91
2018-05-05T05:29:49.248Z,11.3
2018-05-05T05:30:49.306Z,12.01
2018-05-05T05:31:49.446Z,12.61
2018-05-05T05:32:49.493Z,13.14
2018-05-05T05:33:50.270Z,13.87
2018-05-05T05:34:49.942Z,14.42
2018-05-05T05:35:50.066Z,15.13
2018-05-05T05:36:50.010Z,15.59
2018-05-05T05:37:50.288Z,16.36
2018-05-05T05:38:50.711Z,16.88
2018-05-05T05:39:51.142Z,17.42
2018-05-05T05:40:50.915Z,17.58
2018-05-05T05:41:50.951Z,17.17
2018-05-05T05:42:50.981Z,16.54
2018-05-05T05:43:51.625Z,15.7
2018-05-05T05:44:51.668Z,15.13
2018-05-05T05:45:51.489Z,14.48
2018-05-05T05:46:51.944Z,14.15
2018-05-05T05:47:52.011Z,13.84
2018-05-05T05:48:51.678Z,13.72
2018-05-05T05:49:52.379Z,13.58
2018-05-05T05:50:52.543Z,13.57
2018-05-05T05:51:53.009Z,13.48
2018-05-05T05:52:52.986Z,13.31
2018-05-05T05:53:53.362Z,13.17
2018-05-05T05:54:53.399Z,13.11
2018-05-05T05:55:53.884Z,12.94
2018-05-05T05:56:53.767Z,12.94
2018-05-05T05:57:54.235Z,12.95
2018-05-05T05:58:54.140Z,12.95
2018-05-05T05:59:54.935Z,13.01
2018-05-05T06:00:54.648Z,12.96
2018-05-05T06:01:54.214Z,13.1
2018-05-05T06:02:54.018Z,13.24
2018-05-05T06:03:54.609Z,13.45
2018-05-05T06:04:54.584Z,13.53
2018-05-05T06:05:54.604Z,13.62
2018-05-05T06:06:54.655Z,13.93
2018-05-05T06:07:54.862Z,14.21
2018-05-05T06:08:55.046Z,14.39
2018-05-05T06:09:55.498Z,14.61
2018-05-05T06:10:55.246Z,14.75
2018-05-05T06:11:55.812Z,15.08
2018-05-05T06:12:55.768Z,15.86
2018-05-05T06:13:56.244Z,16.65
2018-05-05T06:14:56.254Z,17.12
2018-05-05T06:15:56.000Z,17.22
2018-05-05T06:16:56.509Z,17.4
2018-05-05T06:17:56.535Z,17.76
2018-05-05T06:18:56.573Z,18.2
2018-05-05T06:19:56.591Z,18.99
2018-05-05T06:20:56.805Z,19.93
2018-05-05T06:21:57.093Z,20.97
2018-05-05T06:22:57.179Z,21.7
2018-05-05T06:23:56.896Z,22.02
2018-05-05T06:24:57.188Z,22.42
2018-05-05T06:25:57.627Z,22.7
2018-05-05T06:26:58.090Z,23.03
2018-05-05T06:27:58.187Z,22.97
2018-05-05T06:28:57.917Z,22.79
2018-05-05T06:29:58.047Z,23.18
2018-05-05T06:32:05.442Z,22.79
2018-05-05T06:33:05.993Z,22.64
2018-05-05T06:34:05.999Z,22.99
2018-05-05T06:35:06.070Z,23.22
2018-05-05T06:36:05.799Z,24
2018-05-05T06:37:06.274Z,24.12
2018-05-05T06:38:06.701Z,24.9
2018-05-05T06:39:07.215Z,25.15
2018-05-05T06:40:06.907Z,25.41
2018-05-05T06:41:07.815Z,25.29
2018-05-05T06:42:07.394Z,25.62
2018-05-05T06:43:06.549Z,25.81
2018-05-05T06:44:07.273Z,25.96
2018-05-05T06:45:07.449Z,26.56
2018-05-05T06:46:07.342Z,26.93
2018-05-05T06:47:07.333Z,26.89
2018-05-05T06:48:07.889Z,26.76
2018-05-05T06:49:07.363Z,26.69
2018-05-05T06:50:08.104Z,26.81
2018-05-05T06:51:07.970Z,27.06
2018-05-05T06:52:08.007Z,27.11
2018-05-05T06:53:08.033Z,27.12
2018-05-05T06:54:07.533Z,26.69
2018-05-05T06:55:07.881Z,26.19
2018-05-05T06:56:07.885Z,26.19
2018-05-05T06:57:07.731Z,26.31
2018-05-05T06:58:08.149Z,26.81
2018-05-05T06:59:08.003Z,26.84
2018-05-05T08:00:17.105Z,30.39
2018-05-05T08:01:14.611Z,29.98
2018-05-05T08:02:15.471Z,29.63
2018-05-05T08:03:15.340Z,29.66
2018-05-05T08:04:15.200Z,30.25
2018-05-05T08:05:15.660Z,30.75
2018-05-05T08:06:15.392Z,30.66
2018-05-05T08:07:15.591Z,30.89
2018-05-05T08:08:16.038Z,31.59
2018-05-05T08:09:16.071Z,31.41
2018-05-05T08:10:15.933Z,31.67
2018-05-05T08:11:16.154Z,32.05
2018-05-05T08:12:15.939Z,32.01
2018-05-05T08:13:16.341Z,32.54
2018-05-05T08:14:16.446Z,32.42
2018-05-05T08:15:16.470Z,31.93
2018-05-05T08:16:16.246Z,31.93
2018-05-05T08:17:16.666Z,31
2018-05-05T08:18:16.812Z,30.6
2018-05-05T08:19:17.522Z,30.37
2018-05-05T08:20:17.303Z,30.03
2018-05-05T08:21:18.007Z,30.11
2018-05-05T08:22:18.032Z,30.84
2018-05-05T08:23:18.058Z,30.75
2018-05-05T08:24:18.178Z,31.01
2018-05-05T08:25:18.757Z,30.47
2018-05-05T08:26:18.604Z,30.44
2018-05-05T08:27:18.616Z,30.28
2018-05-05T08:28:18.967Z,30.91
2018-05-05T08:29:18.906Z,31.34
2018-05-05T08:30:18.771Z,31.23
2018-05-05T08:31:18.949Z,31.9
2018-05-05T08:32:19.254Z,31.88
2018-05-05T08:33:19.139Z,31.65
2018-05-05T08:34:19.516Z,31.93
2018-05-05T08:35:19.771Z,31.45
2018-05-05T08:36:19.637Z,31.26
2018-05-05T08:37:20.046Z,31.53
2018-05-05T08:38:20.093Z,31.67
2018-05-05T08:39:20.037Z,32.05
2018-05-05T08:40:20.325Z,32.59
2018-05-05T08:41:20.361Z,33.44
2018-05-05T08:42:21.041Z,34.39
2018-05-05T08:43:20.858Z,35.23
2018-05-05T08:44:20.857Z,35.86
2018-05-05T08:45:21.237Z,35.21
2018-05-05T08:46:21.465Z,35.58
2018-05-05T08:47:21.710Z,34.67
2018-05-05T08:48:21.136Z,34.67
2018-05-05T08:49:21.660Z,33.61
2018-05-05T08:50:21.531Z,32.93
2018-05-05T08:51:21.957Z,31.93
2018-05-05T08:52:22.121Z,31.72
2018-05-05T08:53:22.179Z,32.3
2018-05-05T08:54:22.176Z,33.31
2018-05-05T08:55:21.915Z,34.45
2018-05-05T08:56:22.074Z,35.02
2018-05-05T08:57:22.474Z,35.35
2018-05-05T08:58:22.248Z,35.39
2018-05-05T08:59:22.689Z,34.15
2018-05-05T09:00:23.164Z,32.75
2018-05-05T09:01:22.922Z,33.01
2018-05-05T09:02:23.691Z,33.06
2018-05-05T09:03:23.698Z,33.93
2018-05-05T09:04:23.840Z,34.24
2018-05-05T09:05:23.795Z,34.19
2018-05-05T09:06:23.819Z,34.21
2018-05-05T09:07:23.588Z,34.05
2018-05-05T09:08:23.916Z,34.48
2018-05-05T09:09:23.946Z,34.58
2018-05-05T09:10:23.876Z,35.61
2018-05-05T09:11:23.757Z,36.68
2018-05-05T09:12:23.793Z,37.15
2018-05-05T09:13:24.399Z,37.49
2018-05-05T09:14:24.351Z,37.37
2018-05-05T09:15:24.359Z,37.72
2018-05-05T09:16:24.099Z,37.76
2018-05-05T09:17:24.493Z,38.12
2018-05-05T09:18:24.721Z,37.56
2018-05-05T09:19:25.307Z,37.91
2018-05-05T09:20:24.052Z,38.27
2018-05-05T09:21:24.636Z,36.86
2018-05-05T09:22:24.515Z,35.9
2018-05-05T09:23:25.217Z,35.18
2018-05-05T09:24:25.692Z,34.59
2018-05-05T09:25:24.601Z,34.77
2018-05-05T09:26:25.105Z,35.68
2018-05-05T09:27:24.575Z,36.71
2018-05-05T09:28:25.147Z,36.26
2018-05-05T09:29:25.667Z,36.78
2018-05-05T09:30:25.667Z,37.57
2018-05-05T09:31:26.350Z,37.37
2018-05-05T09:32:26.096Z,37.69
2018-05-05T09:33:25.806Z,37.05
2018-05-05T09:34:26.302Z,36.75
2018-05-05T09:35:26.482Z,36.93
2018-05-05T09:36:26.214Z,36.09
2018-05-05T09:37:26.507Z,35.65
2018-05-05T09:38:26.873Z,34.41
2018-05-05T09:39:26.378Z,35.12
2018-05-05T09:40:26.818Z,35.77
2018-05-05T09:41:26.834Z,35.35
2018-05-05T09:42:26.988Z,35.82
2018-05-05T09:43:26.224Z,35.38
2018-05-05T09:44:26.519Z,35.04
2018-05-05T09:45:27.531Z,34.14
2018-05-05T09:46:27.255Z,33.12
2018-05-05T09:47:26.808Z,33.17
2018-05-05T09:48:27.140Z,32.72
2018-05-05T09:49:27.679Z,33.2
2018-05-05T09:50:27.891Z,33.43
2018-05-05T09:51:27.544Z,32.27
2018-05-05T09:52:29.118Z,31.68
2018-05-05T09:53:28.292Z,31.77
2018-05-05T09:54:28.885Z,32.27
2018-05-05T09:55:29.316Z,32.81
2018-05-05T09:56:29.624Z,31.94
2018-05-05T09:57:29.841Z,32.01
2018-05-05T09:58:29.596Z,31.59
2018-05-05T09:59:30.603Z,31.68
2018-05-05T10:00:30.329Z,30.79
2018-05-05T10:01:30.603Z,30.32
2018-05-05T10:02:30.642Z,30.19
2018-05-05T10:03:30.764Z,30.13
2018-05-05T10:04:31.175Z,30.06
2018-05-05T10:05:31.362Z,30.45
2018-05-05T10:06:30.816Z,31.04
2018-05-05T10:07:31.304Z,31.19
2018-05-05T10:08:31.170Z,31.68
2018-05-05T10:09:32.139Z,31.44
2018-05-05T10:10:31.793Z,32.15
2018-05-05T10:11:31.235Z,33.02
2018-05-05T10:12:31.490Z,33.62
2018-05-05T10:13:31.452Z,33.93
2018-05-05T10:14:32.090Z,33.95
2018-05-05T10:15:31.272Z,34.32
2018-05-05T10:16:31.134Z,33.77
2018-05-05T10:17:31.333Z,34.19
2018-05-05T10:18:31.878Z,32.83
2018-05-05T10:19:31.281Z,31.75
2018-05-05T10:20:31.454Z,31.31
2018-05-05T10:21:32.308Z,32.03
2018-05-05T10:22:31.629Z,32.09
2018-05-05T10:23:32.682Z,32.81
2018-05-05T10:24:32.394Z,32.62
2018-05-05T10:25:33.114Z,32.72
2018-05-05T10:26:32.633Z,32.37
2018-05-05T10:27:32.894Z,32.69
2018-05-05T10:28:32.928Z,33.17
2018-05-05T10:29:33.826Z,34.22
2018-05-05T10:30:33.755Z,34.63
2018-05-05T10:31:33.743Z,33.31
2018-05-05T10:32:33.395Z,32.64
2018-05-05T10:33:33.440Z,32.75
2018-05-05T10:34:35.499Z,32.57
2018-05-05T10:35:34.125Z,32.71
2018-05-05T10:36:34.439Z,32.96
2018-05-05T10:37:34.501Z,31.62
2018-05-05T10:38:34.238Z,31.93
2018-05-05T10:39:34.698Z,31.7
2018-05-05T10:40:34.735Z,31.88
2018-05-05T10:41:34.993Z,30.35
2018-05-05T10:42:34.942Z,31.1
2018-05-05T10:43:34.499Z,31.58
2018-05-05T10:44:36.032Z,30.86
2018-05-05T10:45:35.637Z,29.52
2018-05-05T10:46:35.327Z,29.14
2018-05-05T10:47:35.734Z,28.58
2018-05-05T10:48:36.086Z,27.94
2018-05-05T10:49:35.825Z,27.49
2018-05-05T10:50:35.920Z,27.01
2018-05-05T10:51:36.310Z,27.05
2018-05-05T10:52:35.790Z,27.75
2018-05-05T10:53:35.482Z,27.36
2018-05-05T10:54:35.766Z,27.12
2018-05-05T10:55:36.692Z,27.12
2018-05-05T10:56:37.011Z,27.37
2018-05-05T10:57:36.176Z,27.45
2018-05-05T10:58:36.451Z,26.63
2018-05-05T10:59:36.487Z,26.52
2018-05-05T11:00:37.903Z,26.32
2018-05-05T11:01:38.556Z,25.99
2018-05-05T11:02:36.947Z,26
2018-05-05T11:03:37.260Z,25.94
2018-05-05T11:04:36.640Z,26.11
2018-05-05T11:05:36.805Z,26.34
2018-05-05T11:06:37.087Z,26.23
2018-05-05T11:07:37.189Z,26.35
2018-05-05T11:08:37.153Z,26.41
2018-05-05T11:09:37.871Z,26.27
2018-05-05T11:10:37.739Z,25.76
2018-05-05T11:11:38.422Z,25.41
2018-05-05T11:12:38.930Z,24.86
2018-05-05T11:13:38.913Z,24.75
2018-05-05T11:14:38.468Z,24.9
2018-05-05T11:15:38.713Z,24.77
2018-05-05T11:16:39.094Z,24.56
2018-05-05T11:17:39.748Z,24.46
2018-05-05T11:18:39.500Z,24.61
2018-05-05T11:19:39.901Z,24.39
2018-05-05T11:20:40.288Z,23.96
2018-05-05T11:21:40.584Z,24.09
2018-05-05T11:22:40.377Z,24.09
2018-05-05T11:23:40.768Z,24.21
2018-05-05T11:24:40.794Z,24.44
2018-05-05T11:25:40.815Z,24.56
2018-05-05T11:26:40.857Z,24.85
2018-05-05T11:27:40.902Z,24.36
2018-05-05T11:28:40.936Z,23.93
2018-05-05T11:29:40.956Z,23.66
2018-05-05T11:30:41.330Z,23.25
2018-05-05T11:31:41.370Z,23.14
2018-05-05T11:32:41.401Z,23.07
2018-05-05T11:33:41.905Z,23.26
2018-05-05T11:34:41.839Z,22.99
2018-05-05T11:35:41.640Z,22.36
2018-05-05T11:36:42.266Z,21.86
2018-05-05T11:37:42.316Z,21.38
2018-05-05T11:38:42.428Z,20.94
2018-05-05T11:39:42.468Z,20.57
2018-05-05T11:40:42.138Z,20.54
2018-05-05T11:41:42.450Z,20.42
2018-05-05T11:42:42.863Z,20.3
2018-05-05T11:43:42.629Z,20.08
2018-05-05T11:44:43.148Z,19.98
2018-05-05T11:45:42.555Z,19.97
2018-05-05T11:46:43.118Z,19.75
2018-05-05T11:47:43.515Z,19.71
2018-05-05T11:48:43.549Z,19.64
2018-05-05T11:49:43.282Z,19.53
2018-05-05T11:50:43.874Z,19.5
2018-05-05T11:51:43.543Z,19.5
2018-05-05T11:52:44.282Z,19.46
2018-05-05T11:53:43.994Z,19.3
2018-05-05T11:54:44.465Z,19.31
2018-05-05T11:55:44.435Z,19.27
2018-05-05T11:56:44.697Z,19.23
2018-05-05T11:57:44.880Z,19.24
2018-05-05T11:58:44.898Z,19.15
2018-05-05T11:59:45.775Z,19.1
2018-05-05T12:00:45.260Z,19.05
2018-05-05T12:01:45.685Z,19.1
2018-05-05T12:02:45.729Z,19.15
2018-05-05T12:03:46.352Z,19.38
2018-05-05T12:04:46.147Z,19.63
2018-05-05T12:05:46.406Z,19.72
2018-05-05T12:06:46.396Z,19.98
2018-05-05T12:07:46.229Z,20
2018-05-05T12:08:46.402Z,20.12
2018-05-05T12:09:46.518Z,20.44
2018-05-05T12:10:47.099Z,20.4
2018-05-05T12:11:47.080Z,20.3
2018-05-05T12:12:46.454Z,20.22
2018-05-05T12:13:47.032Z,19.95
2018-05-05T12:14:47.050Z,19.89
2018-05-05T12:15:46.812Z,19.9
2018-05-05T12:16:47.504Z,19.93
2018-05-05T12:17:47.680Z,20
2018-05-05T12:18:47.404Z,20
2018-05-05T12:19:48.081Z,20.07
2018-05-05T12:20:48.203Z,20.1
2018-05-05T12:21:48.675Z,20.19
2018-05-05T12:22:48.657Z,20.3
2018-05-05T12:23:48.681Z,20.32
2018-05-05T12:24:48.858Z,20.37
2018-05-05T12:25:49.380Z,20.48
2018-05-05T12:26:49.388Z,20.71
2018-05-05T12:27:49.455Z,20.82
2018-05-05T12:28:49.199Z,20.97
2018-05-05T12:29:50.368Z,20.78
2018-05-05T12:30:49.842Z,20.74
2018-05-05T12:31:50.319Z,20.82
2018-05-05T12:32:50.623Z,20.98
2018-05-05T12:33:50.797Z,21.19
2018-05-05T12:34:50.704Z,21.16
2018-05-05T12:35:51.286Z,21.21
2018-05-05T12:36:51.082Z,21.16
2018-05-05T12:37:51.450Z,21.06
2018-05-05T12:38:51.189Z,21.15
2018-05-05T12:39:51.608Z,21.16
2018-05-05T12:40:51.400Z,21.3
2018-05-05T12:41:51.692Z,21.34
2018-05-05T12:42:52.094Z,21.23
2018-05-05T12:43:51.892Z,21.04
2018-05-05T12:44:52.571Z,20.96
2018-05-05T12:45:52.727Z,20.72
2018-05-05T12:46:52.768Z,20.74
2018-05-05T12:47:52.792Z,20.72
2018-05-05T12:48:52.640Z,20.71
2018-05-05T12:49:52.647Z,20.61
2018-05-05T12:50:52.921Z,20.42
2018-05-05T12:51:54.440Z,20.38
2018-05-05T12:52:53.642Z,20.37
2018-05-05T12:53:53.646Z,20.4
2018-05-05T12:54:54.222Z,20.35
2018-05-05T12:55:54.535Z,20.32
2018-05-05T12:56:53.418Z,20.27
2018-05-05T12:57:53.765Z,20.42
2018-05-05T12:58:53.714Z,20.3
2018-05-05T12:59:53.490Z,20.34
2018-05-05T13:00:54.171Z,20.35
2018-05-05T13:01:54.198Z,20.19
2018-05-05T13:02:54.225Z,20.22
2018-05-05T13:03:54.266Z,20.2
2018-05-05T13:04:54.057Z,20.15
2018-05-05T13:05:54.197Z,20.15
2018-05-05T13:06:54.887Z,20.07
2018-05-05T13:07:55.318Z,20.01
2018-05-05T13:08:55.058Z,19.87
2018-05-05T13:09:55.715Z,19.87
2018-05-05T13:10:55.893Z,19.98
2018-05-05T13:11:56.196Z,19.92
2018-05-05T13:12:56.601Z,20.07
2018-05-05T13:13:56.946Z,20.07
2018-05-05T13:14:57.200Z,20.11
2018-05-05T13:15:56.822Z,20.01
2018-05-05T13:16:57.109Z,19.89
2018-05-05T13:17:57.972Z,19.92
2018-05-05T13:18:57.582Z,19.9
2018-05-05T13:19:57.577Z,20.04
2018-05-05T13:20:58.708Z,20.12
2018-05-05T13:21:58.104Z,20.25
2018-05-05T13:22:58.170Z,20.41
2018-05-05T13:23:58.441Z,20.54
2018-05-05T13:24:58.194Z,20.61
2018-05-05T13:25:57.967Z,20.64
2018-05-05T13:26:58.673Z,20.75
2018-05-05T13:27:59.120Z,20.61
2018-05-05T13:28:58.895Z,20.58
2018-05-05T13:29:59.307Z,20.38
2018-05-05T13:30:59.610Z,20.44
2018-05-05T13:31:59.645Z,20.29
2018-05-05T13:32:59.845Z,20.34
2018-05-05T13:34:00.530Z,20.22
2018-05-05T13:35:00.690Z,20.12
2018-05-05T13:36:00.445Z,20.18
2018-05-05T13:37:00.519Z,20.2
2018-05-05T13:38:01.161Z,20.26
2018-05-05T13:39:01.574Z,20.32
2018-05-05T13:40:01.620Z,20.3
2018-05-05T13:41:01.755Z,20.35
2018-05-05T13:42:01.813Z,20.19
2018-05-05T13:43:02.485Z,20.2
2018-05-05T13:44:02.270Z,20.19
2018-05-05T13:45:02.886Z,20.26
2018-05-05T13:46:03.352Z,20.25
2018-05-05T13:47:02.575Z,20.11
2018-05-05T13:48:02.699Z,20.04
2018-05-05T13:49:02.807Z,20.04
2018-05-05T13:50:03.226Z,19.89
2018-05-05T13:51:02.992Z,19.83
2018-05-05T13:52:03.280Z,19.79
2018-05-05T13:53:03.642Z,19.71
2018-05-05T13:54:03.475Z,19.75
2018-05-05T13:55:03.598Z,19.61
2018-05-05T13:56:04.029Z,19.61
2018-05-05T13:57:03.796Z,19.64
2018-05-05T13:58:04.483Z,19.52
2018-05-05T13:59:04.680Z,19.52
2018-05-05T14:00:06.109Z,19.45
2018-05-05T14:01:04.960Z,19.4
2018-05-05T14:02:04.941Z,19.35
2018-05-05T14:03:05.619Z,19.4
2018-05-05T14:04:05.813Z,19.4
2018-05-05T14:05:05.538Z,19.38
2018-05-05T14:06:05.599Z,19.37
2018-05-05T14:07:05.373Z,19.34
2018-05-05T14:08:05.496Z,19.34
2018-05-05T14:09:05.922Z,19.3
2018-05-05T14:10:05.907Z,19.23
2018-05-05T14:11:06.118Z,19.17
2018-05-05T14:12:06.487Z,19.15
2018-05-05T14:13:06.208Z,19.1
2018-05-05T14:14:05.986Z,19.05
2018-05-05T14:15:06.565Z,19.12
2018-05-05T14:16:07.024Z,19.09
2018-05-05T14:17:06.256Z,19.06
2018-05-05T14:18:06.835Z,19.07
2018-05-05T14:19:08.371Z,19.09
2018-05-05T14:20:06.745Z,19
2018-05-05T14:21:06.641Z,18.96
2018-05-05T14:22:06.912Z,19
2018-05-05T14:23:07.401Z,19.05
2018-05-05T14:24:07.634Z,19.05
2018-05-05T14:25:07.384Z,19.07
2018-05-05T14:26:07.559Z,18.97
2018-05-05T14:27:07.967Z,19.02
2018-05-05T14:28:08.296Z,19.02
2018-05-05T14:29:08.246Z,18.91
2018-05-05T14:30:08.482Z,18.93
2018-05-05T14:31:08.788Z,18.87
2018-05-05T14:32:08.890Z,18.82
2018-05-05T14:33:09.013Z,18.89
2018-05-05T14:34:09.121Z,18.91
2018-05-05T14:35:10.095Z,18.82
2018-05-05T14:36:09.969Z,18.79
2018-05-05T14:37:10.236Z,18.84
2018-05-05T14:38:10.044Z,18.87
2018-05-05T14:39:10.083Z,18.89
2018-05-05T14:40:09.822Z,18.87
2018-05-05T14:41:11.669Z,18.99
2018-05-05T14:42:10.546Z,18.89
2018-05-05T14:43:10.946Z,19.02
2018-05-05T14:44:11.037Z,18.89
2018-05-05T14:45:10.795Z,18.94
2018-05-05T14:46:10.977Z,18.93
2018-05-05T14:47:11.755Z,18.87
2018-05-05T14:48:11.572Z,18.97
2018-05-05T14:49:11.582Z,18.87
2018-05-05T14:50:11.691Z,18.86
2018-05-05T14:51:11.827Z,18.89
2018-05-05T14:52:11.654Z,18.96
2018-05-05T14:53:12.179Z,18.87
2018-05-05T14:54:12.622Z,18.99
2018-05-05T14:55:13.024Z,18.87
2018-05-05T14:56:13.059Z,18.89
2018-05-05T14:57:13.087Z,18.87
2018-05-05T14:58:13.151Z,18.93
2018-05-05T14:59:12.881Z,18.89
2018-05-05T16:00:10.778Z,18.78
2018-05-05T16:01:10.017Z,18.81
2018-05-05T16:02:10.291Z,18.81
2018-05-05T16:03:10.405Z,18.84
2018-05-05T16:04:11.321Z,18.78
2018-05-05T16:05:10.556Z,18.76
2018-05-05T16:06:11.341Z,18.76
2018-05-05T16:07:10.453Z,18.74
2018-05-05T16:08:11.062Z,18.76
2018-05-05T16:09:10.581Z,18.78
2018-05-05T16:10:10.303Z,18.84
2018-05-05T16:11:11.649Z,18.78
2018-05-05T16:12:12.043Z,18.81
2018-05-05T16:13:10.985Z,18.76
2018-05-05T16:14:11.283Z,18.79
2018-05-05T16:15:11.860Z,18.76
2018-05-05T16:16:11.844Z,18.66
2018-05-05T16:17:11.276Z,18.65
2018-05-05T16:18:11.944Z,18.69
2018-05-05T16:19:11.279Z,18.74
2018-05-05T16:20:12.011Z,18.66
2018-05-05T16:21:11.576Z,18.66
2018-05-05T16:22:11.581Z,18.66
2018-05-05T16:23:11.782Z,18.72
2018-05-05T16:24:12.266Z,18.61
2018-05-05T16:25:12.297Z,18.75
2018-05-05T16:26:12.057Z,18.75
2018-05-05T16:27:12.122Z,18.69
2018-05-05T16:28:12.428Z,18.66
2018-05-05T16:29:12.429Z,18.59
2018-05-05T16:30:12.466Z,18.6
2018-05-05T16:31:12.533Z,18.71
2018-05-05T16:32:12.324Z,18.74
2018-05-05T16:33:12.584Z,18.65
2018-05-05T16:34:12.603Z,18.69
2018-05-05T16:35:12.406Z,18.61
2018-05-05T16:36:12.653Z,18.74
2018-05-05T16:37:12.678Z,18.68
2018-05-05T16:38:12.779Z,18.71
2018-05-05T16:39:12.858Z,18.68
2018-05-05T16:40:12.540Z,18.61
2018-05-05T16:41:12.816Z,18.71
2018-05-05T16:42:13.032Z,18.66
2018-05-05T16:43:13.093Z,18.66
2018-05-05T16:44:13.086Z,18.66
2018-05-05T16:45:12.851Z,18.71
2018-05-05T16:46:13.589Z,18.63
2018-05-05T16:47:13.492Z,18.61
2018-05-05T16:48:14.234Z,18.6
2018-05-05T16:49:14.260Z,18.53
2018-05-05T16:50:14.300Z,18.54
2018-05-05T16:51:14.333Z,18.66
2018-05-05T16:52:14.527Z,18.59
2018-05-05T16:53:15.006Z,18.59
2018-05-05T16:54:15.054Z,18.6
2018-05-05T16:55:15.549Z,18.54
2018-05-05T16:56:15.613Z,18.54
2018-05-05T16:57:16.113Z,18.59
2018-05-05T16:58:15.879Z,18.63
2018-05-05T16:59:16.424Z,18.54